Airfield :
LOGIN :

Register | Disclaimer

   EN    FR    IT 

 










Legend :    VFR   Marginal VFR   IFR   Intensive IFR   Very Intensive IFR
Visi :
Ceiling :
>= 8 km
>= 3000ft
5 to 8 km
1000 to 3000 ft
1500m to 5 km
500 to 1000 ft
800 to 1500m
200 to 500 ft
< 800m
< 200 ft
Symbols :   Thunderstorms  Fog  Heavy snow  Heavy precipitations  Wind > 20 kt
SIGMETs :     Misc.  Thunderstorms  Icing  Turbulence  Mountain Waves  Volcanic Ashes






- Airport Elevation : 80 ft
- IATA code : LPL


EGGP - Liverpool John Lennon

CURRENT METAR :
  • 210050Z 28013KT 9999 SCT008 BKN017 03/02 Q0974

EXPIRED METARs :
  • 210020Z 28020G30KT 9999 -RA FEW008 SCT012 BKN017 04/02 Q0974
  • 202350Z 27019KT 9999 SCT012 BKN017 04/02 Q0974
  • 202320Z 26010KT 180V350 9999 FEW008 SCT012 BKN018 04/03 Q0974
  • 202250Z 30010KT 9999 -RA BKN008 OVC011 03/02 Q0973
  • 202220Z 31015KT 9000 -RA BKN008 OVC011 03/02 Q0973

TAF TAF EGGP
Valid from the 21 at 00:00 until the 22 at 00:00 UTC


202301Z 2100/2124 31009KT 9999 SCT010 BKN018
TEMPO 2100/2124 6000 RA SHRA BKN010
PROB30
TEMPO 2100/2124 27018G28KT 2000 +SHRA SHRASN BKN005
BECMG 2102/2105 23014KT
ATIS : +44 151 907 2000 (option 5 or ext 5150)
Met : +44 871 750 5150



MET'MAP, your aeronautical weather chart ! - Copyright ORBIFLY December 2007 - Disclaimer

ORBIFLY MET'MAP TEAM :

Programming & Development : Alexandra Zaïnal
Concept & original design : Baudouin d'Aumeries
Assistance for programming : Marc-Olivier Méhu
Technical & hardware support : Manuel Goepfert

Contact : metmap@orbifly.com




SOURCES & CREDITS :

   NOAA